Overview Statistics Trail Chart Weather Telemetry Raw packets
 

This is the latest recevied weather packets stored in our database for station/object KB7STN. If no packets are shown the sender has not sent any weather packets the latest 10 day(s).

<< 107 108 109 110 111 112 113 >>
Time Temp. Humidity Pressure Rain* Wind** Luminosity Snow
1787891801 25° C 39% 1020.2 hPa 0 mm - - -
1787891501 25° C 39% 1020.2 hPa 0 mm - - -
1787891201 25° C 39% 1020.3 hPa 0 mm - - -
1787890901 25° C 39% 1020.5 hPa 0 mm - - -
1787890601 25.56° C 39% 1020.6 hPa 0 mm - - -
1787890301 25.56° C 38% 1020.4 hPa 0 mm - - -
1787890001 25.56° C 38% 1020.1 hPa 0 mm - - -
1787889701 25.56° C 38% 1019.9 hPa 0 mm - - -
1787889401 26.11° C 37% 1020 hPa 0 mm - - -
1787889101 26.11° C 36% 1020 hPa 0 mm - - -
1787888809 26.11° C 36% 1019.9 hPa 0 mm - - -
1787888501 26.67° C 35% 1019.7 hPa 0 mm - - -
1787888201 26.67° C 33% 1019.5 hPa 0 mm - - -
1787887901 26.11° C 34% 1019.2 hPa 0 mm - - -
1787887601 25.56° C 35% 1018.8 hPa 0 mm - - -
1787887301 25° C 36% 1018.1 hPa 0 mm - - -
1787887001 25° C 37% 1017.9 hPa 0 mm - - -
1787886701 25° C 36% 1017.8 hPa 0 mm - - -
1787886401 25.56° C 38% 1017.8 hPa 0 mm - - -
1787886101 25.56° C 36% 1017.7 hPa 0 mm - - -
1787885801 26.11° C 35% 1017.7 hPa 0 mm - - -
1787885504 26.11° C 34% 1017.6 hPa 0 mm - - -
1787885201 26.11° C 34% 1017.6 hPa 0 mm - - -
1787884901 26.11° C 34% 1017.5 hPa 0 mm - - -
1787884601 26.11° C 34% 1017.5 hPa 0 mm - - -

* Rain latest hour (hover to see other rain measurements)
** Current wind speed in m/s (hover to see current wind gust speed)